Time;durP1;ratioP1;P1;durP2;ratioP2;P2;SDS_P1;SDS_P2;PMS_P1;PMS_P2;Temp;Humidity;BMP_temperature;BMP_pressure;BME280_temperature;BME280_humidity;BME280_pressure;Samples;Min_cycle;Max_cycle;Signal;HPM_P1;HPM_P2
2021/04/20 00:01:30;;;;;;;16.83;7.20;;;;;;;12.40;47.07;101492.31;5139227;27;20457;-51
2021/04/20 00:03:57;;;;;;;25.27;8.30;;;;;;;12.22;47.82;101494.94;5149311;27;20471;-50
2021/04/20 00:06:24;;;;;;;19.87;8.07;;;;;;;12.21;47.59;101490.56;5158095;27;20826;-54
2021/04/20 00:08:50;;;;;;;20.47;9.33;;;;;;;12.38;47.22;101488.78;5142841;27;20543;-53
2021/04/20 00:11:18;;;;;;;15.60;8.00;;;;;;;12.24;47.48;101492.41;5137136;27;20456;-53
2021/04/20 00:13:44;;;;;;;15.27;7.97;;;;;;;11.96;47.75;101479.03;5138328;27;20494;-51
2021/04/20 00:16:11;;;;;;;20.33;8.27;;;;;;;11.94;47.71;101482.38;5138982;27;20480;-50
2021/04/20 00:18:37;;;;;;;22.20;7.90;;;;;;;11.68;48.25;101477.69;5138384;27;20463;-54
2021/04/20 00:21:05;;;;;;;17.60;8.10;;;;;;;11.91;47.73;101475.34;5136790;27;20451;-52
2021/04/20 00:23:31;;;;;;;16.90;7.60;;;;;;;12.08;47.28;101472.69;5138103;27;20484;-50
2021/04/20 00:25:58;;;;;;;19.27;7.60;;;;;;;11.96;48.10;101468.69;5136911;27;20457;-52
2021/04/20 00:28:27;;;;;;;20.70;7.67;;;;;;;11.94;48.25;101465.13;5138152;27;20456;-49
2021/04/20 00:30:54;;;;;;;24.23;8.10;;;;;;;11.74;49.24;101466.75;5136278;27;20490;-52
2021/04/20 00:33:21;;;;;;;17.33;7.20;;;;;;;11.51;48.97;101468.22;5137446;27;20446;-54
2021/04/20 00:35:49;;;;;;;19.60;7.60;;;;;;;11.78;48.93;101457.47;5136574;27;20475;-52
2021/04/20 00:38:15;;;;;;;18.53;8.30;;;;;;;11.78;48.71;101462.66;5137983;27;20456;-51
2021/04/20 00:40:42;;;;;;;20.60;8.40;;;;;;;11.85;48.61;101454.38;5136551;27;20575;-54
2021/04/20 00:43:10;;;;;;;21.27;7.60;;;;;;;11.47;49.10;101456.84;5137420;27;20483;-48
2021/04/20 00:45:39;;;;;;;17.87;7.37;;;;;;;11.73;48.35;101445.22;5136351;27;20476;-52
2021/04/20 00:48:07;;;;;;;20.73;7.40;;;;;;;11.54;48.92;101447.72;5137527;27;20433;-53
2021/04/20 00:50:36;;;;;;;17.17;7.40;;;;;;;11.87;47.30;101450.16;5136438;27;20450;-52
2021/04/20 00:53:03;;;;;;;25.30;10.40;;;;;;;11.66;48.74;101447.41;5137298;27;20537;-48
2021/04/20 00:55:30;;;;;;;20.17;7.93;;;;;;;10.99;49.46;101450.22;5136225;27;20480;-48
2021/04/20 00:57:56;;;;;;;16.13;8.27;;;;;;;11.31;49.11;101450.94;5137602;27;20427;-51
2021/04/20 01:00:25;;;;;;;19.53;9.37;;;;;;;11.56;49.16;101451.25;5136106;27;20455;-49
2021/04/20 01:02:53;;;;;;;14.70;7.83;;;;;;;11.55;48.48;101449.47;5137009;27;20471;-49
2021/04/20 01:05:24;;;;;;;22.37;8.30;;;;;;;11.59;48.72;101452.28;5136244;27;20451;-51
2021/04/20 01:07:57;;;;;;;18.00;9.03;;;;;;;11.83;48.69;101451.69;5147646;27;20522;-51
2021/04/20 01:10:23;;;;;;;18.83;8.83;;;;;;;11.84;48.70;101457.78;5138189;27;20479;-52
2021/04/20 01:12:50;;;;;;;16.63;7.43;;;;;;;11.69;48.31;101455.34;5135732;27;20483;-55
2021/04/20 01:15:17;;;;;;;15.93;7.60;;;;;;;11.45;48.64;101454.19;5134219;27;20487;-52
2021/04/20 01:17:43;;;;;;;17.60;8.57;;;;;;;11.53;48.13;101451.13;5136207;27;20551;-51
2021/04/20 01:20:13;;;;;;;22.30;9.27;;;;;;;11.37;48.68;101450.34;5134720;27;20746;-54
2021/04/20 01:22:43;;;;;;;21.43;8.43;;;;;;;11.26;48.65;101451.50;5135970;27;20564;-51
2021/04/20 01:25:13;;;;;;;21.73;10.50;;;;;;;11.55;48.16;101450.38;5134640;27;20747;-48
2021/04/20 01:27:40;;;;;;;19.80;8.33;;;;;;;11.47;48.44;101446.50;5152853;27;20451;-48
2021/04/20 01:30:09;;;;;;;20.20;9.10;;;;;;;10.99;49.56;101450.22;5155986;27;20557;-52
2021/04/20 01:32:37;;;;;;;36.57;14.70;;;;;;;11.24;49.21;101442.81;5156627;27;20475;-50
2021/04/20 01:35:04;;;;;;;17.33;8.93;;;;;;;11.33;48.83;101448.41;5155665;27;20450;-52
2021/04/20 01:37:31;;;;;;;22.77;9.47;;;;;;;11.07;49.25;101446.31;5157038;27;20513;-52
2021/04/20 01:39:58;;;;;;;20.83;8.93;;;;;;;10.39;50.97;101453.97;5155561;27;20575;-49
2021/04/20 01:42:26;;;;;;;22.00;9.03;;;;;;;10.83;49.75;101445.94;5156121;27;20473;-53
2021/04/20 01:44:52;;;;;;;22.07;8.10;;;;;;;11.01;49.70;101446.00;5155466;27;20432;-51
2021/04/20 01:47:19;;;;;;;16.83;7.90;;;;;;;10.77;49.94;101437.88;5156458;27;20455;-54
2021/04/20 01:49:46;;;;;;;21.90;9.20;;;;;;;10.77;50.04;101445.63;5155078;27;20434;-51
2021/04/20 01:52:14;;;;;;;19.70;9.80;;;;;;;10.61;50.42;101444.81;5156200;27;20501;-53
2021/04/20 01:54:41;;;;;;;21.00;8.80;;;;;;;10.78;50.20;101442.25;5155393;27;20436;-53
2021/04/20 01:57:08;;;;;;;27.33;9.17;;;;;;;10.54;50.84;101447.88;5156356;27;20761;-53
2021/04/20 01:59:36;;;;;;;19.90;9.10;;;;;;;10.92;49.39;101441.25;5150782;27;21147;-55
2021/04/20 02:02:03;;;;;;;19.07;8.80;;;;;;;10.74;49.75;101442.88;5134666;27;20567;-53
2021/04/20 02:04:30;;;;;;;15.50;8.43;;;;;;;10.49;50.86;101444.16;5136643;28;20479;-53
2021/04/20 02:06:57;;;;;;;16.20;8.10;;;;;;;10.66;49.94;101439.88;5135153;27;20479;-53
2021/04/20 02:09:24;;;;;;;18.50;8.50;;;;;;;10.51;49.99;101440.88;5136445;28;20426;-50
2021/04/20 02:11:50;;;;;;;19.73;8.90;;;;;;;10.48;50.58;101447.56;5134723;27;20476;-50
2021/04/20 02:14:17;;;;;;;24.90;9.20;;;;;;;10.34;50.90;101447.69;5136609;28;20856;-53
2021/04/20 02:16:45;;;;;;;22.77;9.63;;;;;;;10.83;49.02;101445.06;5135195;27;20468;-48
2021/04/20 02:19:13;;;;;;;22.20;9.97;;;;;;;10.34;50.32;101445.09;5136543;28;20450;-51
2021/04/20 02:21:40;;;;;;;24.10;9.60;;;;;;;9.95;52.05;101445.56;5142139;27;20477;-52
2021/04/20 02:24:08;;;;;;;17.20;8.03;;;;;;;10.13;50.94;101439.66;5157099;27;20431;-53
2021/04/20 02:26:37;;;;;;;20.50;9.60;;;;;;;9.99;51.21;101442.38;5155589;27;20907;-52
2021/04/20 02:29:06;;;;;;;17.13;8.20;;;;;;;9.88;51.96;101440.88;5157203;27;20475;-50
2021/04/20 02:31:33;;;;;;;22.17;8.67;;;;;;;9.89;51.87;101434.06;5154864;27;20478;-51
2021/04/20 02:34:04;;;;;;;172.53;63.23;;;;;;;10.53;51.99;101425.47;5156831;27;20471;-53
2021/04/20 02:36:31;;;;;;;30.77;13.00;;;;;;;10.05;51.46;101436.66;5155571;27;20537;-53
2021/04/20 02:38:58;;;;;;;30.60;13.43;;;;;;;10.23;50.95;101428.16;5156841;27;20810;-49
2021/04/20 02:41:26;;;;;;;27.03;8.20;;;;;;;9.86;51.62;101427.91;5155210;27;20460;-54
2021/04/20 02:43:53;;;;;;;25.07;10.13;;;;;;;10.15;51.29;101432.03;5156772;27;20478;-51
2021/04/20 02:46:19;;;;;;;41.27;17.17;;;;;;;10.62;50.11;101425.94;5155530;27;20904;-51
2021/04/20 02:48:46;;;;;;;20.87;9.73;;;;;;;10.55;50.00;101423.84;5156954;27;20462;-52
2021/04/20 02:51:14;;;;;;;19.77;8.90;;;;;;;10.54;49.45;101427.25;5155535;27;20456;-50
2021/04/20 02:53:42;;;;;;;18.67;8.90;;;;;;;10.31;50.28;101424.28;5156265;27;20449;-51
2021/04/20 02:56:11;;;;;;;17.00;8.50;;;;;;;10.10;51.04;101431.78;5155609;27;20453;-50
2021/04/20 02:58:38;;;;;;;24.07;11.47;;;;;;;10.01;51.06;101424.41;5156967;27;20516;-52
2021/04/20 03:01:11;;;;;;;22.37;9.10;;;;;;;9.79;51.64;101430.94;5155081;27;20490;-50
2021/04/20 03:03:39;;;;;;;19.43;9.90;;;;;;;9.59;52.01;101427.28;5159320;27;20811;-52
2021/04/20 03:06:06;;;;;;;20.83;9.80;;;;;;;9.36;52.91;101421.69;5159749;27;20477;-50
2021/04/20 03:08:33;;;;;;;18.77;9.00;;;;;;;10.03;50.95;101417.66;5160392;27;20546;-51
2021/04/20 03:11:04;;;;;;;21.20;10.20;;;;;;;9.81;52.10;101421.63;5158864;27;20561;-52
2021/04/20 03:13:31;;;;;;;23.90;9.60;;;;;;;10.00;51.66;101420.94;5160130;27;20471;-52
2021/04/20 03:15:58;;;;;;;25.57;9.57;;;;;;;10.04;51.15;101422.00;5159542;27;20562;-48
2021/04/20 03:18:25;;;;;;;24.57;9.40;;;;;;;9.88;51.47;101416.81;5160178;27;20425;-52
2021/04/20 03:20:51;;;;;;;19.97;9.50;;;;;;;10.06;51.08;101412.63;5159573;27;20479;-52
2021/04/20 03:23:19;;;;;;;18.80;9.23;;;;;;;9.92;51.41;101413.59;5148253;27;20472;-50
2021/04/20 03:25:47;;;;;;;24.47;10.30;;;;;;;9.99;50.99;101405.38;5138432;27;20557;-50
2021/04/20 03:28:16;;;;;;;27.67;9.80;;;;;;;10.11;50.95;101406.03;5139435;27;20426;-51
2021/04/20 03:30:43;;;;;;;19.00;9.40;;;;;;;9.97;51.32;101412.16;5138554;27;20526;-52
2021/04/20 03:33:17;;;;;;;18.87;9.40;;;;;;;10.05;50.80;101404.84;5138766;27;20482;-51
2021/04/20 03:35:49;;;;;;;30.60;12.40;;;;;;;10.23;51.33;101404.94;5138343;27;20761;-50
2021/04/20 03:38:20;;;;;;;17.67;9.23;;;;;;;10.00;51.94;101407.16;5139246;27;20423;-47
2021/04/20 03:40:52;;;;;;;18.43;9.20;;;;;;;9.88;51.57;101402.22;5138464;27;20451;-51
2021/04/20 03:43:20;;;;;;;19.50;8.50;;;;;;;9.76;51.53;101404.13;5138872;27;20451;-53
2021/04/20 03:45:51;;;;;;;24.53;9.60;;;;;;;9.64;51.71;101405.22;5138039;27;20562;-50
2021/04/20 03:48:20;;;;;;;17.83;8.30;;;;;;;9.91;51.05;101392.09;5139173;27;20466;-51
2021/04/20 03:50:57;;;;;;;20.80;9.40;;;;;;;9.96;51.54;101389.75;5137893;27;20447;-51
2021/04/20 03:53:24;;;;;;;21.80;10.30;;;;;;;9.66;51.88;101395.91;5138224;27;20478;-48
2021/04/20 03:55:52;;;;;;;27.60;10.27;;;;;;;9.49;52.38;101392.34;5138033;27;20480;-51
2021/04/20 03:58:21;;;;;;;20.80;10.80;;;;;;;9.96;52.10;101394.91;5138798;27;20850;-52
2021/04/20 04:00:50;;;;;;;28.57;10.07;;;;;;;9.87;51.66;101387.56;5137384;27;20516;-51
2021/04/20 04:03:19;;;;;;;21.43;9.53;;;;;;;9.57;52.24;101392.78;5138485;27;20447;-52
2021/04/20 04:05:48;;;;;;;21.93;9.70;;;;;;;9.58;51.69;101397.13;5137241;27;20960;-49
2021/04/20 04:08:16;;;;;;;24.63;9.77;;;;;;;9.99;51.45;101395.97;5138596;27;20894;-50
2021/04/20 04:10:44;;;;;;;23.73;10.40;;;;;;;10.56;50.09;101397.22;5137178;27;20472;-50
2021/04/20 04:13:13;;;;;;;24.93;9.93;;;;;;;10.57;48.97;101390.41;5137794;27;20459;-50
2021/04/20 04:15:41;;;;;;;24.00;9.87;;;;;;;10.27;49.50;101391.41;5137150;27;20460;-50
2021/04/20 04:18:10;;;;;;;18.17;9.43;;;;;;;10.13;50.57;101404.47;5138411;27;20544;-52
2021/04/20 04:20:37;;;;;;;20.10;10.00;;;;;;;9.95;51.07;101403.47;5136757;27;20455;-51
2021/04/20 04:23:07;;;;;;;18.30;9.80;;;;;;;10.26;49.55;101398.25;5137804;27;20476;-53
2021/04/20 04:25:38;;;;;;;22.33;10.50;;;;;;;10.17;50.31;101400.34;5136785;27;20454;-49
2021/04/20 04:28:06;;;;;;;23.73;10.40;;;;;;;9.89;51.09;101408.28;5138341;27;20531;-49
2021/04/20 04:30:34;;;;;;;22.40;9.97;;;;;;;9.41;52.67;101404.81;5139486;27;20496;-49
2021/04/20 04:33:02;;;;;;;20.87;10.03;;;;;;;9.41;52.75;101402.25;5137819;27;20580;-50
2021/04/20 04:35:30;;;;;;;21.70;9.67;;;;;;;9.68;52.10;101399.44;5136602;27;20476;-50
2021/04/20 04:37:57;;;;;;;23.57;10.47;;;;;;;9.90;51.52;101404.91;5137941;27;20452;-54
2021/04/20 04:40:23;;;;;;;22.97;10.33;;;;;;;10.07;50.92;101404.13;5136532;27;20480;-52
2021/04/20 04:42:50;;;;;;;20.87;9.70;;;;;;;9.86;51.37;101399.56;5137654;27;20475;-54
2021/04/20 04:45:17;;;;;;;17.57;9.07;;;;;;;9.93;51.47;101402.47;5136448;27;20967;-52
2021/04/20 04:47:45;;;;;;;22.23;9.90;;;;;;;10.10;50.64;101393.97;5137774;27;20466;-50
2021/04/20 04:50:13;;;;;;;24.10;10.70;;;;;;;10.17;51.62;101407.19;5136721;27;20470;-49
2021/04/20 04:52:40;;;;;;;17.50;8.63;;;;;;;9.97;51.31;101397.59;5137500;27;20478;-51
2021/04/20 04:55:08;;;;;;;29.60;13.47;;;;;;;10.26;51.69;101398.25;5136572;27;20816;-51
2021/04/20 04:57:35;;;;;;;36.57;15.87;;;;;;;10.18;52.21;101399.53;5137541;27;20509;-50
2021/04/20 05:00:05;;;;;;;30.80;13.70;;;;;;;10.56;53.12;101389.50;5136257;27;20463;-54
2021/04/20 05:02:31;;;;;;;27.00;13.53;;;;;;;10.74;51.76;101397.31;5136997;27;20484;-52
2021/04/20 05:05:04;;;;;;;21.97;10.07;;;;;;;10.16;51.72;101393.44;5136144;27;20465;-53
2021/04/20 05:07:30;;;;;;;24.93;10.90;;;;;;;10.68;50.21;101391.84;5137279;27;20913;-50
2021/04/20 05:10:00;;;;;;;30.27;13.70;;;;;;;10.75;50.27;101390.44;5136252;27;20448;-54
2021/04/20 05:12:27;;;;;;;32.43;14.97;;;;;;;10.82;50.10;101391.66;5136960;27;20451;-53
2021/04/20 05:14:53;;;;;;;21.90;11.17;;;;;;;10.64;49.94;101395.97;5138550;27;20452;-53
2021/04/20 05:17:20;;;;;;;19.20;9.40;;;;;;;10.71;49.30;101394.56;5136458;27;20435;-52
2021/04/20 05:19:49;;;;;;;33.57;14.10;;;;;;;10.50;51.09;101394.34;5135769;27;20741;-51
2021/04/20 05:22:17;;;;;;;34.70;12.90;;;;;;;10.80;49.48;101396.72;5145439;27;20469;-52
2021/04/20 05:24:43;;;;;;;27.27;11.00;;;;;;;11.00;49.18;101391.69;5138899;27;20418;-53
2021/04/20 05:27:11;;;;;;;33.23;12.07;;;;;;;10.70;50.43;101391.91;5157496;27;20574;-49
2021/04/20 05:29:39;;;;;;;31.60;15.10;;;;;;;11.14;49.78;101389.81;5142286;27;20439;-54
2021/04/20 05:32:07;;;;;;;37.23;15.77;;;;;;;11.43;48.26;101393.81;5135770;27;20526;-51
2021/04/20 05:34:34;;;;;;;22.20;9.93;;;;;;;11.22;48.48;101391.06;5156993;27;20461;-53
2021/04/20 05:37:00;;;;;;;25.07;10.77;;;;;;;11.43;48.19;101393.81;5151431;27;20457;-50
2021/04/20 05:39:28;;;;;;;20.47;9.00;;;;;;;11.04;48.88;101391.91;5136518;27;20456;-52
2021/04/20 05:41:55;;;;;;;22.93;9.97;;;;;;;11.06;48.88;101394.56;5134811;27;20487;-49
2021/04/20 05:44:21;;;;;;;23.77;9.77;;;;;;;11.54;47.84;101391.72;5136545;27;20439;-51
2021/04/20 05:46:48;;;;;;;26.03;10.00;;;;;;;11.55;47.88;101398.69;5150287;27;20547;-48
2021/04/20 05:49:19;;;;;;;33.40;10.37;;;;;;;11.46;48.08;101393.06;5157463;27;20418;-48
2021/04/20 05:51:45;;;;;;;21.50;9.90;;;;;;;11.32;48.18;101389.81;5155124;27;20454;-48
2021/04/20 05:54:13;;;;;;;20.70;8.03;;;;;;;11.48;48.13;101394.91;5157187;27;20645;-48
2021/04/20 05:56:40;;;;;;;18.37;8.60;;;;;;;11.91;47.54;101386.53;5155993;27;20467;-48
2021/04/20 05:59:07;;;;;;;25.13;10.67;;;;;;;11.89;47.58;101391.63;5157077;27;20783;-49
2021/04/20 06:01:36;;;;;;;24.27;9.03;;;;;;;12.01;47.52;101389.59;5155147;27;20454;-49
2021/04/20 06:04:04;;;;;;;18.07;8.40;;;;;;;12.01;47.75;101384.44;5139748;27;20431;-48
2021/04/20 06:06:32;;;;;;;18.97;6.80;;;;;;;12.10;47.03;101383.13;5134957;27;20555;-48
2021/04/20 06:09:01;;;;;;;17.60;8.87;;;;;;;12.41;46.48;101393.16;5135617;27;20542;-50
2021/04/20 06:11:27;;;;;;;15.47;7.20;;;;;;;12.23;47.14;101389.72;5134298;27;20447;-48
2021/04/20 06:13:55;;;;;;;15.93;7.13;;;;;;;12.64;46.60;101387.19;5135959;28;20453;-50
2021/04/20 06:16:22;;;;;;;15.53;6.50;;;;;;;12.44;46.04;101389.81;5134259;27;20563;-47
2021/04/20 06:18:51;;;;;;;17.33;7.70;;;;;;;12.64;46.41;101395.88;5135800;28;20944;-47
2021/04/20 06:21:18;;;;;;;15.10;7.50;;;;;;;12.93;45.50;101390.16;5133482;27;20913;-47
2021/04/20 06:23:45;;;;;;;16.57;6.50;;;;;;;12.83;45.65;101388.91;5135609;28;20850;-46
2021/04/20 06:26:13;;;;;;;16.20;7.10;;;;;;;13.10;45.11;101391.75;5134681;27;20534;-46
2021/04/20 06:28:40;;;;;;;17.60;7.83;;;;;;;12.75;46.11;101392.84;5136207;27;20452;-46
2021/04/20 06:31:10;;;;;;;17.87;7.50;;;;;;;13.05;45.88;101393.28;5134205;27;20481;-46
2021/04/20 06:33:37;;;;;;;17.10;8.37;;;;;;;13.16;45.12;101396.31;5135634;28;21014;-49
2021/04/20 06:36:08;;;;;;;27.53;8.47;;;;;;;13.40;44.24;101394.66;5134909;27;20485;-46
2021/04/20 06:38:36;;;;;;;19.87;9.50;;;;;;;13.35;45.12;101390.16;5160327;27;20451;-46
2021/04/20 06:41:04;;;;;;;16.70;7.83;;;;;;;13.53;44.30;101388.28;5155975;27;20568;-48
2021/04/20 06:43:54;;;;;;;19.67;7.47;;;;;;;13.31;44.66;101388.28;5160421;27;20473;-46
2021/04/20 06:46:28;;;;;;;14.20;6.50;;;;;;;13.32;44.81;101390.03;5159503;27;20504;-48
2021/04/20 06:48:57;;;;;;;35.87;15.60;;;;;;;13.69;44.46;101393.22;5160596;27;20491;-47
2021/04/20 06:51:26;;;;;;;14.70;5.87;;;;;;;13.29;44.03;101389.94;5159039;27;20447;-49
2021/04/20 06:53:54;;;;;;;25.90;10.73;;;;;;;13.71;43.69;101393.31;5159750;27;21026;-50
2021/04/20 06:56:26;;;;;;;47.30;20.97;;;;;;;13.66;43.36;101390.53;5159108;27;20477;-51
2021/04/20 06:59:02;;;;;;;15.50;5.90;;;;;;;13.64;44.07;101387.88;5160630;27;20447;-47
2021/04/20 07:01:36;;;;;;;17.10;7.50;;;;;;;13.93;42.75;101383.78;5158592;27;20451;-49
2021/04/20 07:04:11;;;;;;;28.30;12.37;;;;;;;14.43;42.40;101382.16;5160679;27;20469;-46
2021/04/20 07:06:43;;;;;;;14.60;6.73;;;;;;;14.52;42.55;101389.38;5159031;27;20481;-47
2021/04/20 07:09:14;;;;;;;13.47;5.80;;;;;;;14.41;42.31;101383.78;5160384;27;20456;-46
2021/04/20 07:11:46;;;;;;;14.20;5.73;;;;;;;14.44;41.81;101378.72;5158375;27;20461;-47
2021/04/20 07:14:21;;;;;;;14.40;5.33;;;;;;;14.10;42.52;101393.06;5160303;27;20506;-46
2021/04/20 07:16:55;;;;;;;15.13;6.43;;;;;;;14.84;41.83;101378.38;5158985;27;20459;-46
2021/04/20 07:19:29;;;;;;;13.97;5.50;;;;;;;15.25;40.41;101378.00;5160209;27;20502;-47
2021/04/20 07:22:40;;;;;;;13.90;5.40;;;;;;;14.63;41.03;101378.47;5158134;27;20481;-47
2021/04/20 07:25:17;;;;;;;16.50;7.10;;;;;;;15.00;40.80;101374.59;5081064;28;20442;-46
2021/04/20 07:27:56;;;;;;;13.93;5.00;;;;;;;15.38;40.05;101381.84;5118286;28;20957;-48
2021/04/20 07:30:24;;;;;;;17.70;6.90;;;;;;;15.32;39.95;101379.06;5134351;27;20566;-47
2021/04/20 07:33:03;;;;;;;18.37;5.23;;;;;;;15.48;40.06;101372.66;5138619;27;20454;-46
2021/04/20 07:35:33;;;;;;;13.57;5.80;;;;;;;15.73;39.24;101379.47;5137963;27;20552;-48
2021/04/20 07:38:02;;;;;;;11.63;4.80;;;;;;;15.68;39.28;101375.84;5154345;27;20469;-46
2021/04/20 07:40:35;;;;;;;8.43;4.30;;;;;;;15.49;40.11;101380.47;5158649;27;20479;-46
2021/04/20 07:43:24;;;;;;;11.00;5.10;;;;;;;15.78;39.42;101377.91;5159302;27;20475;-48
2021/04/20 07:45:53;;;;;;;14.33;4.80;;;;;;;15.06;40.46;101376.50;5157908;27;20951;-49
2021/04/20 07:48:35;;;;;;;13.47;4.37;;;;;;;15.73;38.73;101379.47;5158937;27;20474;-48
2021/04/20 07:51:07;;;;;;;12.17;4.10;;;;;;;15.43;38.77;101374.22;5158067;27;20550;-47
2021/04/20 07:53:39;;;;;;;8.33;3.80;;;;;;;15.48;39.19;101368.31;5158813;27;20467;-46
2021/04/20 07:56:11;;;;;;;13.20;4.87;;;;;;;16.01;38.28;101369.91;5158308;27;20546;-49
2021/04/20 07:58:42;;;;;;;17.33;7.50;;;;;;;16.64;37.30;101371.63;5159478;27;20554;-47
2021/04/20 08:01:27;;;;;;;15.67;4.77;;;;;;;16.86;37.39;101366.13;5157704;27;20494;-48
2021/04/20 08:04:01;;;;;;;12.80;4.50;;;;;;;16.67;37.06;101366.50;5158672;27;20562;-48
2021/04/20 08:06:30;;;;;;;11.97;4.70;;;;;;;16.86;36.74;101362.63;5135960;27;20476;-47
2021/04/20 08:08:58;;;;;;;12.53;5.10;;;;;;;16.99;36.94;101364.69;5136998;27;20459;-49
2021/04/20 08:11:29;;;;;;;12.50;5.50;;;;;;;17.36;35.87;101361.25;5135149;27;20788;-48
2021/04/20 08:14:02;;;;;;;12.90;4.70;;;;;;;17.11;36.40;101363.28;5136312;27;20479;-49
2021/04/20 08:16:34;;;;;;;10.97;3.67;;;;;;;16.97;36.23;101366.41;5135561;27;20513;-48
2021/04/20 08:19:06;;;;;;;14.30;5.00;;;;;;;16.97;36.37;101361.19;5136750;27;20492;-50
2021/04/20 08:21:33;;;;;;;16.17;7.20;;;;;;;16.87;36.11;101360.06;5135379;27;20479;-52
2021/04/20 08:24:00;;;;;;;11.97;4.57;;;;;;;16.53;36.46;101359.22;5136354;27;20480;-49
2021/04/20 08:26:31;;;;;;;16.97;5.30;;;;;;;16.95;35.92;101356.78;5135715;27;20480;-49
2021/04/20 08:29:01;;;;;;;11.40;5.00;;;;;;;17.07;35.83;101362.31;5136834;27;20761;-47
2021/04/20 08:31:34;;;;;;;18.50;7.77;;;;;;;17.50;35.39;101361.59;5135438;27;20482;-46
2021/04/20 08:34:11;;;;;;;9.13;3.83;;;;;;;17.26;35.14;101350.63;5136429;27;20475;-47
2021/04/20 08:36:42;;;;;;;10.30;4.03;;;;;;;17.45;34.43;101347.53;5135252;27;20480;-47
2021/04/20 08:39:15;;;;;;;10.37;4.83;;;;;;;17.79;34.44;101353.53;5139210;27;20556;-50
2021/04/20 08:41:44;;;;;;;18.43;9.20;;;;;;;18.14;33.75;101348.16;5135060;27;20982;-48
2021/04/20 08:44:19;;;;;;;17.03;5.47;;;;;;;18.05;33.35;101353.19;5137000;27;20456;-49
2021/04/20 08:46:53;;;;;;;18.83;8.20;;;;;;;18.44;33.03;101349.63;5136036;27;20510;-46
2021/04/20 08:49:35;;;;;;;12.20;4.60;;;;;;;18.28;32.11;101347.56;5137227;27;20973;-48
2021/04/20 08:52:06;;;;;;;16.53;6.70;;;;;;;18.87;31.85;101348.63;5136158;27;20472;-47
2021/04/20 08:54:42;;;;;;;10.00;3.83;;;;;;;18.38;32.05;101346.88;5137198;27;20453;-47
2021/04/20 08:57:16;;;;;;;14.60;4.43;;;;;;;18.77;33.14;101342.34;5136926;27;20547;-52
2021/04/20 09:00:14;;;;;;;10.23;4.00;;;;;;;19.02;31.26;101343.66;5135819;27;20457;-50
2021/04/20 09:02:47;;;;;;;10.43;4.33;;;;;;;18.57;31.37;101342.00;5101553;27;20571;-53
2021/04/20 09:05:23;;;;;;;10.13;4.00;;;;;;;19.05;31.17;101347.16;5135807;27;20559;-49
2021/04/20 09:07:59;;;;;;;8.43;3.83;;;;;;;18.49;32.11;101337.53;5136741;27;20458;-50
2021/04/20 09:10:31;;;;;;;17.57;7.03;;;;;;;18.86;32.37;101339.00;5135368;27;20490;-49
2021/04/20 09:13:05;;;;;;;14.00;4.13;;;;;;;19.10;30.95;101340.28;5136802;27;20511;-49
2021/04/20 09:15:36;;;;;;;11.50;4.30;;;;;;;19.02;30.93;101335.81;5135926;27;20477;-48
2021/04/20 09:18:05;;;;;;;12.80;3.70;;;;;;;18.82;31.53;101339.81;5136997;27;20499;-47
2021/04/20 09:20:52;;;;;;;11.20;3.50;;;;;;;18.82;31.48;101337.19;5135589;27;20616;-50
2021/04/20 09:23:27;;;;;;;9.10;4.70;;;;;;;19.75;30.70;101337.72;5139179;27;20481;-46
2021/04/20 09:26:02;;;;;;;9.70;3.87;;;;;;;19.90;31.33;101339.66;5135663;27;20480;-49
2021/04/20 09:28:32;;;;;;;17.23;6.00;;;;;;;19.71;30.17;101339.41;5136929;27;20562;-48
2021/04/20 09:31:02;;;;;;;7.63;3.10;;;;;;;19.18;30.06;101337.78;5135376;27;20481;-50
2021/04/20 09:33:33;;;;;;;13.77;4.53;;;;;;;19.30;29.95;101337.97;5136663;27;20570;-50
2021/04/20 09:36:01;;;;;;;14.17;4.90;;;;;;;19.45;29.08;101339.94;5135383;27;20483;-49
2021/04/20 09:38:29;;;;;;;8.23;3.10;;;;;;;19.39;29.09;101345.09;5136956;27;20832;-48
2021/04/20 09:40:56;;;;;;;9.90;3.40;;;;;;;19.11;30.06;101336.81;5135324;27;20485;-51
2021/04/20 09:43:29;;;;;;;12.27;3.30;;;;;;;19.60;28.11;101341.00;5136596;27;20565;-48
2021/04/20 09:46:00;;;;;;;12.87;4.00;;;;;;;19.24;28.33;101337.88;5134645;27;20929;-51
2021/04/20 09:48:31;;;;;;;17.10;5.07;;;;;;;19.93;27.62;101337.94;5136772;27;20461;-48
2021/04/20 09:51:03;;;;;;;10.90;3.90;;;;;;;19.65;27.21;101336.72;5135459;27;20551;-52
2021/04/20 09:53:36;;;;;;;7.83;3.17;;;;;;;20.14;27.06;101338.22;5136259;27;20815;-51
2021/04/20 09:56:17;;;;;;;16.23;4.57;;;;;;;19.40;27.80;101336.38;5135238;27;20469;-51
2021/04/20 09:58:45;;;;;;;12.73;4.87;;;;;;;19.70;26.97;101340.28;5136474;27;20505;-49
2021/04/20 10:01:19;;;;;;;7.30;3.27;;;;;;;20.01;26.63;101329.31;5134815;27;20857;-51
2021/04/20 10:03:57;;;;;;;12.80;5.10;;;;;;;19.94;26.32;101330.97;5136190;27;20566;-50
2021/04/20 10:06:52;;;;;;;9.37;3.17;;;;;;;20.84;26.49;101337.19;5135115;27;20912;-50
2021/04/20 10:09:30;;;;;;;9.60;4.57;;;;;;;20.00;27.10;101331.06;5136587;27;20463;-48
2021/04/20 10:12:06;;;;;;;12.50;4.57;;;;;;;20.61;26.14;101339.56;5134212;27;20478;-48
2021/04/20 10:14:44;;;;;;;7.87;3.30;;;;;;;20.45;25.73;101338.53;5136497;27;20455;-50
2021/04/20 10:17:15;;;;;;;9.87;3.90;;;;;;;20.82;25.63;101331.00;5135858;27;20484;-51
2021/04/20 10:19:47;;;;;;;8.90;3.30;;;;;;;20.45;25.32;101328.06;5134972;27;20460;-50
2021/04/20 10:22:27;;;;;;;14.03;5.80;;;;;;;20.79;25.52;101328.34;5135900;27;20492;-50
2021/04/20 10:25:04;;;;;;;8.97;3.57;;;;;;;19.97;25.59;101328.41;5135211;27;20544;-52
2021/04/20 10:27:33;;;;;;;9.67;3.90;;;;;;;20.71;24.58;101330.91;5136212;27;20462;-51
2021/04/20 10:30:03;;;;;;;8.87;4.10;;;;;;;19.90;24.31;101326.56;5134774;27;20517;-50
2021/04/20 10:32:32;;;;;;;9.57;4.00;;;;;;;20.03;24.28;101318.00;5138619;27;20474;-50
2021/04/20 10:35:00;;;;;;;8.53;3.27;;;;;;;20.43;23.79;101320.19;5134836;27;20518;-52
2021/04/20 10:37:41;;;;;;;8.20;3.53;;;;;;;21.11;24.47;101314.63;5136176;27;20502;-51
2021/04/20 10:40:10;;;;;;;12.47;4.53;;;;;;;20.46;23.50;101316.72;5134789;27;20535;-47
2021/04/20 10:42:38;;;;;;;13.13;4.27;;;;;;;20.27;23.40;101313.03;5135820;27;20560;-52
2021/04/20 10:45:06;;;;;;;11.53;3.90;;;;;;;20.47;22.43;101315.84;5134734;27;20508;-52
2021/04/20 10:47:33;;;;;;;9.73;3.20;;;;;;;20.58;23.22;101314.22;5136212;27;20458;-51
2021/04/20 10:50:00;;;;;;;7.03;2.90;;;;;;;20.94;22.47;101306.66;5134844;27;20809;-51
2021/04/20 10:52:31;;;;;;;14.37;3.10;;;;;;;20.20;23.64;101306.84;5135481;27;20922;-51
2021/04/20 10:54:59;;;;;;;7.67;3.50;;;;;;;20.79;22.89;101304.75;5134258;27;20559;-51
2021/04/20 10:57:28;;;;;;;9.10;4.57;;;;;;;20.41;22.20;101300.06;5138172;27;20463;-52
2021/04/20 10:59:56;;;;;;;7.53;3.60;;;;;;;20.91;21.80;101299.66;5136940;27;21330;-48
2021/04/20 11:02:29;;;;;;;7.60;2.93;;;;;;;21.34;22.45;101300.78;5146199;27;20481;-51
2021/04/20 11:04:56;;;;;;;8.80;3.83;;;;;;;21.25;23.03;101300.72;5154804;27;20549;-53
2021/04/20 11:07:26;;;;;;;6.33;2.70;;;;;;;21.17;23.03;101291.06;5138769;27;20454;-54
2021/04/20 11:09:57;;;;;;;10.23;3.20;;;;;;;20.73;23.45;101307.34;5133747;27;20498;-49
2021/04/20 11:12:26;;;;;;;9.47;2.90;;;;;;;20.98;21.58;101295.31;5135232;28;20470;-52
2021/04/20 11:14:54;;;;;;;8.00;2.43;;;;;;;20.96;22.20;101298.81;5142739;27;20457;-50
2021/04/20 11:17:30;;;;;;;7.83;3.10;;;;;;;21.24;22.61;101288.47;5152824;27;20458;-52
2021/04/20 11:20:08;;;;;;;15.17;6.87;;;;;;;21.44;22.62;101288.59;5155151;27;20538;-51
2021/04/20 11:22:38;;;;;;;6.77;3.17;;;;;;;21.13;21.97;101297.16;5149253;27;20476;-52
2021/04/20 11:25:09;;;;;;;11.37;4.63;;;;;;;21.14;21.84;101291.06;5137792;27;20468;-50
2021/04/20 11:27:37;;;;;;;9.00;3.90;;;;;;;21.31;22.43;101287.66;5139248;27;20462;-48
2021/04/20 11:30:09;;;;;;;10.20;2.97;;;;;;;20.78;22.39;101282.91;5137672;27;20470;-53